Location:  
MeteoStar

Sort by weather type Sort by elevation Sort by visibility Sort from west to east north Sort from north to south Alphabetically Sort from strongest wind speed Sort from lowest to highest pressure Sort from highest to lowest dew point temperature Sort coolest temperatures to warmest Sort warm temperatures to coolest
 Metric

Current Observations for Turkey

Adana / Incirlik15:00ZPartly Cloudy93 5471008.0WSW 4 91239
Adana / Sakirpasa15:00ZClear90 6071008.2WSW 8 9065
Adapazari15:00ZCloudy69 66121014.5NNE 6 Gusting to 15 6998
Agri15:00ZCloudy63 4812W 7 Gusting to 14 635354
Akhisar15:00ZMostly Cloudy81 60121011.2N 7 Gusting to 14 81305
Amasya15:00ZMostly Cloudy79 59121010.2ENE 12 Gusting to 22 791351
Anamur15:00ZClear80 63121009.9SW 6 829
Ankara / Central15:00ZPartly Cloudy78 42121009.4SSE 3 Gusting to 15 782923
Ankara / Esenboga15:00ZMostly Cloudy77 4371010.0SE 5 Gusting to 14 773126
Ankara / Etimesgut15:00ZMostly Cloudy74 5571010.7W 8 Gusting to 16 742621
Antalya15:00ZPartly Cloudy77 6571011.0S 8 Gusting to 15 77164
Artvin15:00ZMostly Cloudy81 45121014.2WNW 2 Gusting to 9 8098
Aydin15:00ZMostly Cloudy78 56121010.5WSW 3 Gusting to 14 78187
Balikesir15:00ZCloudy71 6471014.7N 11 Gusting to 20 71331
Bandirma15:00ZMostly Cloudy66 6271016.4NNE 14 Gusting to 25 66167
Batman15:00ZPartly Cloudy87 46121010.7S 4 Gusting to 13 841771
Bingol15:00ZMostly Cloudy79 49121014.5SSE 2 Gusting to 11 793861
Bodrum Milas Airport15:20ZMostly Cloudy75 63121011.1CALM7519
Bodrum15:00ZCloudy78 59121011.0N 2 Gusting to 7 7888
Bolu15:00ZMostly Cloudy70 5691013.0ESE 3 Gusting to 7 702434
Bursa15:00ZCloudy69 6671014.4W 2 Gusting to 8 69331
Canakkale15:00ZMostly Cloudy73 6191015.4NE 8 Gusting to 22 739
Cengiztopel15:00ZCloudy67 6751015.5S 2 Gusting to 13 67229
Corlu15:20ZMostly Cloudy66 59121016.9N 19 66567
Corum15:00ZPartly Cloudy82 52121008.9W 3 Gusting to 6 812545
Dalaman15:00ZPartly Cloudy77 6271011.9SW 7 Gusting to 14 7722
Denizli15:00ZCloudy73 52121010WSW 6 Gusting to 11 731404
Dikili15:00ZMostly Cloudy78 59121011.5WSW 2 Gusting to 11 789
Diyarbakir15:00ZPartly Cloudy86 4871009.9SE 7 Gusting to 22 832250
Edirne15:00ZMostly Cloudy76 59121016.9NNE 8 Gusting to 16 76157
Elazig15:00ZMostly Cloudy83 49121011.2SE 11 Gusting to 19 812959
Erzincan15:00ZMostly Cloudy80 44121010.9ESE 4 Gusting to 11 803792
Erzurum15:00ZThunder62 4212E 14 Gusting to 24 625761
Eskisehir15:00ZMostly Cloudy66 5871012.2NW 9 Gusting to 22 662575
Finike15:00ZPartly Cloudy78 65121009.7SSW 5 Gusting to 12 789
Gaziantep15:00ZPartly Cloudy87 4271008.0SW 6 Gusting to 18 842299
Giresun15:00ZThunderstorm71 6491016.2E 1 Gusting to 10 71124
Gumushane15:00ZMostly Cloudy70 40121011.9SSW 1 Gusting to 27 703999
Hakkari15:00ZPartly Cloudy73 4212867.1N 0 Gusting to 10 731256
Hopa15:00ZCloudy76 71121016.2WNW 2 Gusting to 11 76108
Igdir15:00ZMostly Cloudy80 54121014.5N 1 Gusting to 10 802814
Inebolu15:00ZCloudy71 6971014.2ENE 2 Gusting to 8 71209
Iskenderun15:00ZClear83 6991009NW 2 Gusting to 10 879
Isparta15:00ZPartly Cloudy74 47121010.4SE 5 Gusting to 11 743270
Istanbul / Ataturk15:00ZMostly Cloudy70 6171016.5N 16 Gusting to 25 70157
Izmir / Adnan Menderes15:00ZMostly Cloudy74 5991011.7N 14 Gusting to 25 74410
Izmir / Cigli15:00ZMostly Cloudy79 5771012NNE 6 Gusting to 26 7916
Izmir15:00ZMostly Cloudy76 62121011.2WSW 5 Gusting to 14 7682
Kars15:00ZMostly Cloudy61 517WSW 6 Gusting to 23 615823
Kastamonu15:00ZShowers in Vicinity69 60121012.2NNE 3 Gusting to 15 692621
Kayseri / Erkilet15:00ZPartly Cloudy81 31121008.5S 15 Gusting to 29 793454
Kirklareli15:00ZCloudy71 54121017NE 4 Gusting to 13 71761
Kirsehir15:00ZPartly Cloudy80 54121005.1NNE 6 Gusting to 10 803264
Konya / Eregli15:00ZClear81 29121006.5E 6 Gusting to 14 793425
Konya15:00ZPartly Cloudy78 44121008.7S 5 Gusting to 17 783385
Kumkoy15:00ZMostly Cloudy67 64121016.2NNW 5 Gusting to 13 6798
Malatya / Erhac15:00ZPartly Cloudy86 4271009.5S 11 Gusting to 18 832828
Manisa15:00ZMostly Cloudy77 58121011.2ENE 2 Gusting to 7 77232
Mardin15:00ZClear81 42121011.5ENE 4 Gusting to 19 793444
Marmaris15:00ZMostly Cloudy77 64121011.5NE 2 Gusting to 9 779
Mersin15:00ZClear85 63121009.2SW 3 869
Merzifon15:00ZMostly Cloudy74 57121010NNE 19 Gusting to 36 741788
Mugla15:00ZMostly Cloudy71 59121011.4S 2 Gusting to 9 712119
Murted Tur-Afb 15:00ZThunderstorm69 6291012.0NW 6 Gusting to 12 692765
Mus15:00ZPartly Cloudy74 47121013.1NNE 1 Gusting to 5 744330
Nevsehir15:00ZPartly Cloudy78 32121008.4SSW 7 Gusting to 18 784133
Nevsehir15:20ZPartly Cloudy84 32121010.3S 13 813100
Nigde15:00ZClear77 36121007.7SSW 11 Gusting to 21 773963
Samsun15:00ZCloudy73 6691014.0N 0 Gusting to 9 7313
Siirt15:00ZPartly Cloudy85 47121011.4S 3 822936
Silifke15:00ZClear86 53121009.2SSW 1 8449
Sinop15:00ZMostly Cloudy73 67121013.4NNE 3 Gusting to 15 73104
Sivas15:00ZPartly Cloudy80 3791007.0SSW 3 804215
Tekirdag15:00ZCloudy70 61121017.4NNE 9 Gusting to 20 7013
Tokat15:00ZCloudy73 56121010.5E 13 Gusting to 22 731994
Trabzon15:00ZMostly Cloudy74 70121014.5NNW 5 Gusting to 18 74114
Urfa15:00ZMostly Cloudy76 55121010.4NNW 3 Gusting to 15 761794
Van15:00ZMostly Cloudy67 557WNW 10 Gusting to 16 675469
Yozgat15:00ZThunderstorm72 5391007.7N 2 Gusting to 10 724258


Atlantic
Tropical Watch